EW4288 Weather Reports


Display with metric or nautical units.
time (UTC)temp
F
wind
direction
speed
MPH
gust
MPH
rain 1hr
in
rain 24hr
in
rain mn
in
humidity
%
barometer
mb
20210723200036 80 255 4.0 11.0 0.00 0.00 0.00 28 1017.5
20210723194601 79 209 4.0 9.0 0.00 0.00 0.00 27 1017.6
20210723193112 78 161 5.0 13.0 0.00 0.00 0.00 30 1017.7
20210723191557 78 288 1.0 8.0 0.00 0.00 0.00 31 1017.7
20210723190044 78 257 4.0 10.0 0.00 0.00 0.00 30 1017.8
20210723184607 77 180 1.0 8.0 0.00 0.00 0.00 32 1017.7
20210723183116 76 220 3.0 12.0 0.00 0.00 0.00 31 1017.7
20210723181554 74 227 1.0 10.0 0.00 0.00 0.00 33 1017.8
20210723180032 75 205 4.0 9.0 0.00 0.00 0.00 34 1017.9
20210723174544 74 279 3.0 9.0 0.00 0.00 0.00 37 1017.8
20210723173025 73 178 3.0 11.0 0.00 0.00 0.00 38 1017.9
20210723171541 71 174 3.0 10.0 0.00 0.00 0.00 41 1017.8
20210723170055 70 225 3.0 10.0 0.00 0.00 0.00 44 1017.9
20210723164509 69 138 2.0 6.0 0.00 0.00 0.00 40 1017.9
20210723163016 68 194 2.0 9.0 0.00 0.00 0.00 42 1017.9
20210723161502 67 238 1.0 9.0 0.00 0.00 0.00 41 1017.9
20210723160136 67 214 2.0 8.0 0.00 0.00 0.00 39 1017.8
20210723154707 66 94 4.0 10.0 0.00 0.00 0.00 38 1017.7
20210723153126 66 213 5.0 12.0 0.00 0.00 0.00 38 1017.5
20210723151722 65 129 3.0 11.0 0.00 0.00 0.00 38 1017.4
20210723150310 64 212 2.0 4.0 0.00 0.00 0.00 44 1017.3
20210723144652 61 49 0.0 4.0 0.00 0.00 0.00 52 1017.2
20210723143206 61 67 1.0 3.0 0.00 0.00 0.00 55 1017.2
20210723141656 59 67 1.0 4.0 0.00 0.00 0.00 59 1017.0
20210723140152 56 67 1.0 4.0 0.00 0.00 0.00 62 1016.9
20210723134613 54 157 1.0 3.0 0.00 0.00 0.00 64 1016.8
20210723133129 53 157 1.0 3.0 0.00 0.00 0.00 67 1016.8
20210723131552 52 159 2.0 4.0 0.00 0.00 0.00 68 1016.7
20210723130047 51 161 0.0 3.0 0.00 0.00 0.00 69 1016.7
20210723124544 51 164 3.0 5.0 0.00 0.00 0.00 69 1016.5
20210723123104 51 184 0.0 0.0 0.00 0.00 0.00 73 1016.4
20210723121613 50 184 0.0 0.0 0.00 0.00 0.00 73 1016.3
20210723120037 51 184 0.0 0.0 0.00 0.00 0.00 68 1016.1
20210723114625 50 184 0.0 0.0 0.00 0.00 0.00 69 1016.1
20210723113106 51 184 0.0 0.0 0.00 0.00 0.00 67 1016.0
20210723111619 51 184 0.0 0.0 0.00 0.00 0.00 63 1015.8
20210723110114 52 184 0.0 0.0 0.00 0.00 0.00 65 1015.6
20210723104537 52 184 0.0 0.0 0.00 0.00 0.00 63 1015.5
20210723103038 53 184 0.0 0.0 0.00 0.00 0.00 61 1015.4
20210723101602 53 184 0.0 0.0 0.00 0.00 0.00 60 1015.2
20210723100018 53 184 0.0 0.0 0.00 0.00 0.00 59 1015.1
20210723094545 53 184 0.0 0.0 0.00 0.00 0.00 60 1015.0
20210723093034 54 184 0.0 0.0 0.00 0.00 0.00 57 1015.1
20210723091513 54 184 0.0 0.0 0.00 0.00 0.00 58 1015.0
20210723090011 55 184 0.0 0.0 0.00 0.00 0.00 54 1015.0
20210723084508 55 184 0.0 0.0 0.00 0.00 0.00 53 1014.8
20210723083124 56 184 0.0 0.0 0.00 0.00 0.00 52 1014.7
20210723081613 56 184 0.0 0.0 0.00 0.00 0.00 53 1014.6
20210723080140 56 184 0.0 0.0 0.00 0.00 0.00 53 1014.4
20210723074628 57 184 0.0 0.0 0.00 0.00 0.00 49 1014.4
20210723073143 58 184 0.0 0.0 0.00 0.00 0.00 50 1014.3
20210723071723 58 184 0.0 0.0 0.00 0.00 0.00 49 1014.3
20210723070128 59 184 0.0 1.0 0.00 0.00 0.00 46 1014.1
20210723064604 59 184 1.0 3.0 0.00 0.00 0.00 47 1014.1
20210723063113 60 184 0.0 3.0 0.00 0.00 0.00 44 1014.1
20210723061650 61 184 0.0 3.0 0.00 0.00 0.00 41 1014.1
20210723060109 61 184 0.0 2.0 0.00 0.00 0.00 40 1013.9
20210723054731 62 184 1.0 2.0 0.00 0.00 0.00 41 1013.8
20210723053144 62 184 1.0 3.0 0.00 0.00 0.00 38 1013.7
20210723051800 63 184 2.0 4.0 0.00 0.00 0.00 38 1013.7
20210723050115 64 184 1.0 3.0 0.00 0.00 0.00 37 1013.6
20210723044703 65 184 1.0 4.0 0.00 0.00 0.00 35 1013.5
20210723043147 66 184 2.0 4.0 0.00 0.00 0.00 34 1013.4
20210723041618 67 184 2.0 4.0 0.00 0.00 0.00 32 1013.3
20210723040058 68 243 2.0 3.0 0.00 0.00 0.00 33 1013.0
20210723034557 69 244 1.0 3.0 0.00 0.00 0.00 33 1012.9
20210723033112 70 244 0.0 2.0 0.00 0.00 0.00 31 1012.8
20210723031613 71 244 0.0 2.0 0.00 0.00 0.00 29 1012.7
20210723030102 73 244 0.0 2.0 0.00 0.00 0.00 27 1012.7
20210723024643 75 244 2.0 6.0 0.00 0.00 0.00 22 1012.6
20210723023143 76 248 1.0 7.0 0.00 0.00 0.00 22 1012.6
20210723021546 77 207 2.0 4.0 0.00 0.00 0.00 21 1012.6
20210723020137 77 234 2.0 6.0 0.00 0.00 0.00 22 1012.5
20210723014706 77 200 0.0 8.0 0.00 0.00 0.00 22 1012.4
20210723013158 77 254 1.0 6.0 0.00 0.00 0.00 21 1012.5
20210723011555 78 254 3.0 8.0 0.00 0.00 0.00 21 1012.6
20210723010120 79 240 1.0 7.0 0.00 0.00 0.00 22 1012.6
20210723004701 79 248 3.0 9.0 0.00 0.00 0.00 22 1012.6
20210723003036 78 267 2.0 12.0 0.00 0.00 0.00 22 1012.7
20210723001551 79 258 4.0 11.0 0.00 0.00 0.00 23 1012.9
20210723000056 79 257 3.0 10.0 0.00 0.00 0.00 23 1012.9
20210722234621 78 269 2.0 8.0 0.00 0.00 0.00 22 1013.0
20210722233059 80 275 2.0 5.0 0.00 0.00 0.00 24 1013.1
20210722231556 79 265 6.0 12.0 0.00 0.00 0.00 22 1013.3
20210722230105 78 275 3.0 11.0 0.00 0.00 0.00 22 1013.3
20210722224556 79 270 5.0 9.0 0.00 0.00 0.00 25 1013.4
20210722223114 79 207 3.0 11.0 0.00 0.00 0.00 30 1013.4
20210722221533 78 173 4.0 8.0 0.00 0.00 0.00 25 1013.5
20210722220028 78 263 5.0 10.0 0.00 0.00 0.00 24 1013.5
20210722214532 78 283 2.0 9.0 0.00 0.00 0.00 31 1013.5
20210722213101 77 177 4.0 11.0 0.00 0.00 0.00 30 1013.4
20210722211607 77 240 3.0 8.0 0.00 0.00 0.00 28 1013.5
20210722210028 77 275 2.0 6.0 0.00 0.00 0.00 29 1013.7
20210722204532 76 277 2.0 11.0 0.00 0.00 0.00 29 1013.8
20210722203039 75 111 3.0 9.0 0.00 0.00 0.00 32 1013.9
20210722201519 73 250 0.0 11.0 0.00 0.00 0.00 31 1014.1